This is the latest recevied weather packets stored in our database for station/object K4DFD-13. If no packets are shown the sender has not sent any weather packets the latest 10 day(s).
| Time | Temp. | Humidity | Pressure | Rain* | Wind** | Luminosity | Snow |
|---|---|---|---|---|---|---|---|
| 1777666933 | 18.89° C | 44% | 1011.1 hPa | 0 mm | - | - | - |
| 1777666632 | 19.44° C | 44% | 1011.1 hPa | 0 mm | - | - | - |
| 1777666032 | 18.89° C | 45% | 1011.2 hPa | 0 mm | - | - | - |
| 1777664843 | 19.44° C | 44% | 1011.3 hPa | 0 mm | - | - | - |
| 1777664242 | 18.89° C | 44% | 1011.5 hPa | 0 mm | - | - | - |
| 1777663941 | 18.89° C | 44% | 1011.7 hPa | 0 mm | - | - | - |
| 1777663641 | 18.89° C | 42% | 1011.7 hPa | 0 mm | - | - | - |
| 1777663341 | 18.89° C | 43% | 1011.8 hPa | 0 mm | - | - | - |
| 1777663040 | 18.89° C | 42% | 1011.9 hPa | 0 mm | - | - | - |
| 1777662740 | 18.89° C | 42% | 1011.9 hPa | 0 mm | - | - | - |
| 1777662439 | 18.33° C | 45% | 1011.9 hPa | 0 mm | - | - | - |
| 1777661838 | 17.78° C | 45% | 1012.2 hPa | 0 mm | - | - | - |
| 1777661238 | 17.78° C | 45% | 1012.4 hPa | 0 mm | - | - | - |
| 1777660637 | 17.78° C | 44% | 1012.5 hPa | 0 mm | - | - | - |
| 1777660337 | 17.78° C | 45% | 1012.5 hPa | 0 mm | - | - | - |
| 1777660036 | 17.22° C | 45% | 1012.7 hPa | 0 mm | - | - | - |
| 1777659736 | 17.22° C | 46% | 1012.9 hPa | 0 mm | - | - | - |
| 1777659436 | 17.22° C | 44% | 1012.9 hPa | 0 mm | - | - | - |
| 1777659135 | 17.78° C | 44% | 1012.9 hPa | 0 mm | - | - | - |
| 1777658835 | 17.78° C | 45% | 1012.9 hPa | 0 mm | - | - | - |
| 1777657333 | 16.67° C | 42% | 1013.4 hPa | 0 mm | - | - | - |
| 1777657033 | 16.11° C | 43% | 1013.5 hPa | 0 mm | - | - | - |
| 1777656732 | 16.67° C | 42% | 1013.5 hPa | 0 mm | - | - | - |
| 1777656432 | 16.67° C | 41% | 1013.4 hPa | 0 mm | - | - | - |
| 1777656131 | 16.67° C | 41% | 1013.4 hPa | 0 mm | - | - | - |
* Rain latest hour (hover to see other rain measurements)
** Current wind speed in m/s (hover to see current wind gust speed)